Time;durP1;ratioP1;P1;durP2;ratioP2;P2;SDS_P1;SDS_P2;PMS_P1;PMS_P2;Temp;Humidity;BMP_temperature;BMP_pressure;BME280_temperature;BME280_humidity;BME280_pressure;Samples;Min_cycle;Max_cycle;Signal;HPM_P1;HPM_P2
2021/03/05 00:00:44;;;;;;;11.70;8.00;;;6.90;74.90;;;;;;5020640;28;20542;-40
2021/03/05 00:03:11;;;;;;;12.37;8.80;;;6.90;74.70;;;;;;5008959;28;21098;-40
2021/03/05 00:05:39;;;;;;;11.37;7.60;;;6.90;74.90;;;;;;5004647;28;20467;-40
2021/03/05 00:08:07;;;;;;;11.70;7.80;;;6.90;75.00;;;;;;5023356;28;20546;-40
2021/03/05 00:10:36;;;;;;;11.27;8.83;;;6.90;75.20;;;;;;5021598;28;20956;-40
2021/03/05 00:13:03;;;;;;;11.40;8.50;;;6.90;75.00;;;;;;5022924;28;20561;-40
2021/03/05 00:15:32;;;;;;;17.17;7.80;;;6.90;75.10;;;;;;5005862;28;20834;-40
2021/03/05 00:18:00;;;;;;;13.70;9.60;;;6.90;75.00;;;;;;5005248;28;20555;-40
2021/03/05 00:20:28;;;;;;;13.10;8.53;;;6.90;74.80;;;;;;5001500;28;20456;-40
2021/03/05 00:22:56;;;;;;;12.60;9.20;;;6.90;74.90;;;;;;5024679;28;20497;-40
2021/03/05 00:25:25;;;;;;;12.70;8.40;;;6.90;75.00;;;;;;5019402;28;20793;-40
2021/03/05 00:27:52;;;;;;;14.13;9.30;;;6.90;75.00;;;;;;5023871;28;20537;-40
2021/03/05 00:30:19;;;;;;;14.10;9.73;;;6.80;75.20;;;;;;5005002;28;20517;-40
2021/03/05 00:32:48;;;;;;;10.30;8.70;;;6.80;75.40;;;;;;5021859;28;20483;-40
2021/03/05 00:35:16;;;;;;;13.43;9.47;;;6.90;75.60;;;;;;5022353;28;20455;-40
2021/03/05 00:37:49;;;;;;;16.47;9.80;;;6.90;75.70;;;;;;5019245;28;20459;-40
2021/03/05 00:40:17;;;;;;;17.13;10.23;;;6.90;75.10;;;;;;5022863;28;20460;-40
2021/03/05 00:42:45;;;;;;;15.70;10.20;;;6.90;74.80;;;;;;5005825;28;20823;-40
2021/03/05 00:45:14;;;;;;;13.13;9.37;;;6.90;75.10;;;;;;5018978;28;20495;-40
2021/03/05 00:47:41;;;;;;;17.50;10.87;;;6.90;75.20;;;;;;5006886;28;20506;-40
2021/03/05 00:50:11;;;;;;;16.77;9.50;;;6.90;74.80;;;;;;5024158;28;20941;-40
2021/03/05 00:52:38;;;;;;;16.70;9.87;;;6.90;74.40;;;;;;5040165;28;20523;-40
2021/03/05 00:55:06;;;;;;;14.63;9.37;;;6.90;74.50;;;;;;5021446;28;20982;-40
2021/03/05 00:57:33;;;;;;;16.77;10.90;;;6.90;74.70;;;;;;5022150;28;20549;-40
2021/03/05 01:00:00;;;;;;;14.73;10.17;;;6.80;74.80;;;;;;5005034;28;21009;-40
2021/03/05 01:02:26;;;;;;;17.53;9.90;;;6.90;75.00;;;;;;5006010;28;20494;-40
2021/03/05 01:04:52;;;;;;;13.70;10.00;;;6.90;75.10;;;;;;5027998;28;21015;-40
2021/03/05 01:07:19;;;;;;;14.57;9.70;;;6.90;75.10;;;;;;5025540;28;20988;-40
2021/03/05 01:09:45;;;;;;;21.10;10.47;;;6.90;75.00;;;;;;5006768;28;20467;-40
2021/03/05 01:12:12;;;;;;;19.33;10.83;;;6.90;74.90;;;;;;5023355;28;20834;-40
2021/03/05 01:14:42;;;;;;;16.07;10.87;;;6.90;75.00;;;;;;5010618;28;20456;-40
2021/03/05 01:17:08;;;;;;;15.50;11.10;;;6.90;74.70;;;;;;4991587;28;20483;-40
2021/03/05 01:19:35;;;;;;;14.90;10.20;;;6.90;74.70;;;;;;5043266;28;20807;-40
2021/03/05 01:22:01;;;;;;;15.30;9.97;;;6.90;74.70;;;;;;5003010;28;20548;-41
2021/03/05 01:24:31;;;;;;;13.10;9.27;;;6.90;74.70;;;;;;5011023;28;20554;-41
2021/03/05 01:27:02;;;;;;;17.87;10.63;;;6.90;74.50;;;;;;5025744;28;20459;-40
2021/03/05 01:29:29;;;;;;;19.10;10.60;;;6.80;74.60;;;;;;5026552;28;20470;-40
2021/03/05 01:31:55;;;;;;;17.00;10.43;;;6.90;74.90;;;;;;5034657;28;20483;-40
2021/03/05 01:34:24;;;;;;;13.53;9.67;;;6.80;74.80;;;;;;5025719;28;20490;-40
2021/03/05 01:36:50;;;;;;;17.30;10.17;;;6.80;74.90;;;;;;5025549;28;20818;-40
2021/03/05 01:39:17;;;;;;;16.93;10.30;;;6.80;75.10;;;;;;5025954;28;20541;-41
2021/03/05 01:41:43;;;;;;;17.93;10.47;;;6.80;75.40;;;;;;5022621;28;20459;-41
2021/03/05 01:44:11;;;;;;;17.13;10.43;;;6.80;75.10;;;;;;4988430;28;20496;-41
2021/03/05 01:46:37;;;;;;;15.43;9.93;;;6.80;75.10;;;;;;5009445;28;20579;-41
2021/03/05 01:49:05;;;;;;;13.30;9.57;;;6.80;75.20;;;;;;5040593;28;20503;-41
2021/03/05 01:51:34;;;;;;;18.30;10.87;;;6.80;74.90;;;;;;5024306;28;20535;-41
2021/03/05 01:54:01;;;;;;;19.67;11.80;;;6.80;75.00;;;;;;5027334;28;20487;-41
2021/03/05 01:56:44;;;;;;;16.50;10.00;;;6.90;74.70;;;;;;5027728;28;20495;-41
2021/03/05 01:59:12;;;;;;;14.30;9.57;;;6.80;74.80;;;;;;5026663;28;20530;-41
2021/03/05 02:01:40;;;;;;;16.00;11.13;;;6.80;74.80;;;;;;5026167;28;20630;-41
2021/03/05 02:04:11;;;;;;;17.37;10.40;;;6.80;74.90;;;;;;4990424;28;20543;-41
2021/03/05 02:06:58;;;;;;;19.93;11.13;;;6.80;75.00;;;;;;5013791;28;20460;-41
2021/03/05 02:09:25;;;;;;;17.00;10.17;;;6.80;75.10;;;;;;5025015;28;20467;-41
2021/03/05 02:11:51;;;;;;;20.87;9.80;;;6.80;75.00;;;;;;5009126;28;20463;-41
2021/03/05 02:14:18;;;;;;;19.27;10.97;;;6.80;75.10;;;;;;5015123;28;20483;-41
2021/03/05 02:17:12;;;;;;;17.07;10.40;;;6.80;75.40;;;;;;5008662;28;20456;-41
2021/03/05 02:19:56;;;;;;;14.73;11.23;;;6.80;75.30;;;;;;5038450;28;20482;-41
2021/03/05 02:22:41;;;;;;;16.63;11.33;;;6.80;75.30;;;;;;5041302;28;20518;-41
2021/03/05 02:25:36;;;;;;;18.57;11.43;;;6.80;75.30;;;;;;5022779;28;20571;-41
2021/03/05 02:28:42;;;;;;;17.13;11.30;;;6.90;75.20;;;;;;5026485;28;20463;-41
2021/03/05 02:31:30;;;;;;;16.40;10.60;;;6.90;75.30;;;;;;5041419;28;20465;-41
2021/03/05 02:33:59;;;;;;;20.13;11.80;;;6.90;75.10;;;;;;5007854;28;20483;-41
2021/03/05 02:36:31;;;;;;;16.50;10.50;;;6.80;75.00;;;;;;5023736;28;20475;-41
2021/03/05 02:39:13;;;;;;;19.30;11.37;;;6.80;75.00;;;;;;5025097;28;20739;-41
2021/03/05 02:41:42;;;;;;;17.70;11.10;;;6.80;75.00;;;;;;5022462;28;20509;-41
2021/03/05 02:44:20;;;;;;;19.87;11.90;;;6.80;75.20;;;;;;5024731;28;20980;-41
2021/03/05 02:46:47;;;;;;;20.10;12.17;;;6.80;75.20;;;;;;5027148;28;20533;-41
2021/03/05 02:49:19;;;;;;;17.90;11.40;;;6.80;75.10;;;;;;5022869;28;20574;-41
2021/03/05 02:51:47;;;;;;;24.00;14.30;;;6.90;75.10;;;;;;5040361;28;20560;-41
2021/03/05 02:54:18;;;;;;;20.30;12.73;;;6.90;75.00;;;;;;5024424;28;20845;-41
2021/03/05 02:56:46;;;;;;;21.50;12.67;;;6.90;75.10;;;;;;5025079;28;20455;-41
2021/03/05 02:59:15;;;;;;;22.60;12.80;;;6.80;75.30;;;;;;5026191;28;20502;-41
2021/03/05 03:01:49;;;;;;;22.47;13.10;;;6.90;74.70;;;;;;5026020;28;20566;-41
2021/03/05 03:04:18;;;;;;;19.80;13.80;;;6.90;75.00;;;;;;5021399;28;20476;-41
2021/03/05 03:06:45;;;;;;;22.70;13.07;;;6.90;74.70;;;;;;5026174;28;20457;-41
2021/03/05 03:09:13;;;;;;;24.37;14.03;;;6.80;74.60;;;;;;5024551;28;20465;-41
2021/03/05 03:11:43;;;;;;;25.00;13.63;;;6.80;75.00;;;;;;5024926;28;20471;-41
2021/03/05 03:14:12;;;;;;;22.03;13.77;;;6.80;75.40;;;;;;5022601;28;20557;-41
2021/03/05 03:16:44;;;;;;;23.70;13.57;;;6.80;75.30;;;;;;5022538;28;20570;-41
2021/03/05 03:19:13;;;;;;;20.27;12.47;;;6.80;75.40;;;;;;5024265;28;20548;-41
2021/03/05 03:21:45;;;;;;;20.43;13.37;;;6.80;75.40;;;;;;5025168;28;20811;-40
2021/03/05 03:24:11;;;;;;;21.50;13.57;;;6.70;75.40;;;;;;5004755;28;20467;-40
2021/03/05 03:26:38;;;;;;;22.07;13.40;;;6.80;75.30;;;;;;4988131;28;20548;-40
2021/03/05 03:29:09;;;;;;;23.70;13.00;;;6.80;74.90;;;;;;5023640;28;20459;-40
2021/03/05 03:31:42;;;;;;;18.90;13.13;;;6.80;74.90;;;;;;5023331;28;20551;-40
2021/03/05 03:34:08;;;;;;;17.20;12.47;;;6.80;75.00;;;;;;5022378;28;20483;-41
2021/03/05 03:36:37;;;;;;;18.60;12.73;;;6.80;75.10;;;;;;5023213;28;20495;-41
2021/03/05 03:39:10;;;;;;;19.90;12.30;;;6.80;74.80;;;;;;5026312;28;20439;-41
2021/03/05 03:41:40;;;;;;;17.60;11.97;;;6.80;74.50;;;;;;5023256;28;21093;-41
2021/03/05 03:44:08;;;;;;;19.13;10.87;;;6.80;73.70;;;;;;5022077;28;20886;-41
2021/03/05 03:46:43;;;;;;;16.50;10.00;;;6.80;73.40;;;;;;5004255;28;20463;-41
2021/03/05 03:49:14;;;;;;;17.20;12.80;;;6.90;73.10;;;;;;5007267;28;20458;-41
2021/03/05 03:51:52;;;;;;;17.50;10.07;;;6.80;72.80;;;;;;5028077;28;20443;-41
2021/03/05 03:54:21;;;;;;;13.87;9.63;;;6.80;72.70;;;;;;5025078;28;20526;-41
2021/03/05 03:56:50;;;;;;;13.00;8.97;;;6.70;72.80;;;;;;5017892;28;20458;-41
2021/03/05 03:59:20;;;;;;;11.80;8.10;;;6.70;72.60;;;;;;5009343;28;20518;-41
2021/03/05 04:01:49;;;;;;;12.60;7.80;;;6.70;72.20;;;;;;5023102;28;20968;-41
2021/03/05 04:04:17;;;;;;;14.33;8.27;;;6.70;71.90;;;;;;5008152;28;20547;-41
2021/03/05 04:06:46;;;;;;;12.00;7.53;;;6.70;71.90;;;;;;5023835;28;20455;-41
2021/03/05 04:09:13;;;;;;;11.80;7.87;;;6.70;71.60;;;;;;5021580;28;20495;-41
2021/03/05 04:11:40;;;;;;;9.50;6.60;;;6.70;71.20;;;;;;5024087;28;20557;-41
2021/03/05 04:14:08;;;;;;;11.23;7.47;;;6.70;71.10;;;;;;5022925;28;20573;-41
2021/03/05 04:16:34;;;;;;;11.40;8.03;;;6.70;71.20;;;;;;5021867;28;20534;-41
2021/03/05 04:19:02;;;;;;;10.67;6.70;;;6.70;71.10;;;;;;5020259;28;20452;-41
2021/03/05 04:21:31;;;;;;;9.80;6.00;;;6.70;70.80;;;;;;5004437;28;21043;-41
2021/03/05 04:23:58;;;;;;;9.23;5.70;;;6.70;70.70;;;;;;5027513;28;20543;-41
2021/03/05 04:26:26;;;;;;;12.17;6.10;;;6.70;70.60;;;;;;5022805;28;20463;-41
2021/03/05 04:28:52;;;;;;;8.30;5.67;;;6.70;70.10;;;;;;5005065;28;21031;-41
2021/03/05 04:31:22;;;;;;;10.30;6.27;;;6.60;69.80;;;;;;5024865;28;20542;-40
2021/03/05 04:33:48;;;;;;;10.27;5.87;;;6.60;70.30;;;;;;5007425;28;20985;-40
2021/03/05 04:36:21;;;;;;;8.00;5.17;;;6.60;70.30;;;;;;5022750;28;20451;-41
2021/03/05 04:39:03;;;;;;;9.90;6.17;;;6.60;70.40;;;;;;5027805;28;20465;-41
2021/03/05 04:41:30;;;;;;;13.40;6.73;;;6.60;70.60;;;;;;5010781;28;20462;-41
2021/03/05 04:43:58;;;;;;;11.47;7.03;;;6.50;71.00;;;;;;5024973;28;20541;-41
2021/03/05 04:46:26;;;;;;;9.50;5.80;;;6.50;71.10;;;;;;5012343;28;20495;-41
2021/03/05 04:48:58;;;;;;;13.43;6.57;;;6.50;71.20;;;;;;5028601;28;20466;-41
2021/03/05 04:51:26;;;;;;;9.23;5.90;;;6.50;70.80;;;;;;5026960;28;21023;-41
2021/03/05 04:53:52;;;;;;;10.17;6.60;;;6.50;70.60;;;;;;5025440;28;20490;-41
2021/03/05 04:56:21;;;;;;;8.87;6.07;;;6.50;71.00;;;;;;5027259;28;20559;-41
2021/03/05 04:58:48;;;;;;;11.77;5.80;;;6.50;71.00;;;;;;5042429;28;20460;-41
2021/03/05 05:01:14;;;;;;;16.13;6.40;;;6.50;70.20;;;;;;5009285;28;20833;-41
2021/03/05 05:03:41;;;;;;;8.73;5.20;;;6.50;70.20;;;;;;5006874;28;20471;-41
2021/03/05 05:06:07;;;;;;;9.27;6.03;;;6.50;70.40;;;;;;5028389;28;20538;-41
2021/03/05 05:08:37;;;;;;;10.77;6.10;;;6.50;70.50;;;;;;5026494;28;20526;-40
2021/03/05 05:11:03;;;;;;;8.33;4.90;;;6.40;70.70;;;;;;5006646;28;20473;-40
2021/03/05 05:13:30;;;;;;;7.30;4.73;;;6.50;70.70;;;;;;5025254;28;21050;-40
2021/03/05 05:15:57;;;;;;;8.33;5.67;;;6.50;70.00;;;;;;5002991;28;20992;-41
2021/03/05 05:18:27;;;;;;;8.63;4.93;;;6.40;70.00;;;;;;5028116;28;20520;-41
2021/03/05 05:20:53;;;;;;;9.40;6.00;;;6.40;70.40;;;;;;5026686;28;20463;-41
2021/03/05 05:23:23;;;;;;;10.10;5.47;;;6.30;70.60;;;;;;5028895;28;20633;-41
2021/03/05 05:25:50;;;;;;;9.03;6.37;;;6.30;70.70;;;;;;5007961;28;20967;-41
2021/03/05 05:28:17;;;;;;;11.33;6.07;;;6.30;71.00;;;;;;5004912;28;20463;-41
2021/03/05 05:30:43;;;;;;;9.60;5.53;;;6.30;71.20;;;;;;5025581;28;20554;-41
2021/03/05 05:33:09;;;;;;;13.13;6.20;;;6.40;71.00;;;;;;5009819;28;20471;-41
2021/03/05 05:35:36;;;;;;;11.60;6.10;;;6.30;70.60;;;;;;5041224;28;20463;-41
2021/03/05 05:38:02;;;;;;;14.43;6.93;;;6.20;71.30;;;;;;5027165;28;20459;-41
2021/03/05 05:40:31;;;;;;;12.53;6.50;;;6.30;71.10;;;;;;5006535;28;20482;-41
2021/03/05 05:43:01;;;;;;;12.07;5.80;;;6.20;70.90;;;;;;5023262;28;21024;-41
2021/03/05 05:45:27;;;;;;;12.23;5.90;;;6.10;70.80;;;;;;5024936;28;20574;-41
2021/03/05 05:47:57;;;;;;;10.90;6.10;;;6.20;70.90;;;;;;4987956;28;20857;-40
2021/03/05 05:50:24;;;;;;;10.83;7.03;;;6.10;70.80;;;;;;5008771;28;20464;-40
2021/03/05 05:52:53;;;;;;;11.47;6.13;;;6.10;71.10;;;;;;5027371;28;20535;-40
2021/03/05 05:55:20;;;;;;;12.90;6.77;;;6.10;71.40;;;;;;5018497;28;20521;-41
2021/03/05 05:57:46;;;;;;;14.80;6.67;;;6.10;71.20;;;;;;5004623;28;20956;-41
2021/03/05 06:00:13;;;;;;;13.80;7.40;;;6.10;71.20;;;;;;5024387;28;21014;-41
2021/03/05 06:02:42;;;;;;;10.10;6.30;;;6.10;71.30;;;;;;5007692;28;20463;-41
2021/03/05 06:05:14;;;;;;;9.73;6.07;;;6.00;71.50;;;;;;5026527;28;20498;-41
2021/03/05 06:07:44;;;;;;;13.70;6.67;;;6.00;71.60;;;;;;5008224;28;20455;-41
2021/03/05 06:10:11;;;;;;;9.70;5.93;;;6.00;71.70;;;;;;5005829;28;21277;-41
2021/03/05 06:12:41;;;;;;;11.40;6.90;;;6.10;71.60;;;;;;5026314;28;20831;-41
2021/03/05 06:15:08;;;;;;;15.10;7.10;;;6.10;71.10;;;;;;5009637;28;20459;-41
2021/03/05 06:17:44;;;;;;;14.93;7.20;;;6.00;71.40;;;;;;5023357;28;20455;-41
2021/03/05 06:20:12;;;;;;;15.57;7.40;;;6.00;71.50;;;;;;5025091;28;21259;-41
2021/03/05 06:22:39;;;;;;;13.27;6.90;;;6.00;71.90;;;;;;5040779;28;20569;-41
2021/03/05 06:25:08;;;;;;;13.07;7.53;;;6.00;72.00;;;;;;5009232;28;21150;-41
2021/03/05 06:27:38;;;;;;;20.63;7.50;;;6.00;72.30;;;;;;5006119;28;20463;-41
2021/03/05 06:30:07;;;;;;;14.03;8.00;;;6.00;72.40;;;;;;5023292;28;20518;-41
2021/03/05 06:32:37;;;;;;;13.93;7.83;;;6.00;72.40;;;;;;5025434;28;20447;-41
2021/03/05 06:35:04;;;;;;;14.47;7.70;;;6.00;72.60;;;;;;5006938;28;21076;-41
2021/03/05 06:37:45;;;;;;;15.57;7.73;;;6.00;72.30;;;;;;5024999;28;20574;-41
2021/03/05 06:40:28;;;;;;;18.50;9.07;;;6.00;72.20;;;;;;5025974;28;21027;-41
2021/03/05 06:42:56;;;;;;;20.50;8.10;;;6.10;72.20;;;;;;5006798;28;20516;-41
2021/03/05 06:45:35;;;;;;;15.53;7.47;;;6.00;72.30;;;;;;4990956;28;20553;-41
2021/03/05 06:48:08;;;;;;;16.07;8.47;;;6.00;72.40;;;;;;5022955;28;20468;-41
2021/03/05 06:50:42;;;;;;;14.13;7.80;;;6.00;72.60;;;;;;5025173;28;20503;-41
2021/03/05 06:53:23;;;;;;;16.30;8.23;;;6.00;72.70;;;;;;5026499;28;21090;-41
2021/03/05 06:55:51;;;;;;;18.43;9.10;;;6.00;72.80;;;;;;5024013;28;20474;-41
2021/03/05 06:58:24;;;;;;;13.47;7.67;;;5.90;73.00;;;;;;5026778;28;20460;-41
2021/03/05 07:01:01;;;;;;;16.60;8.17;;;6.00;72.80;;;;;;5023982;28;20539;-40
2021/03/05 07:03:28;;;;;;;16.70;9.23;;;6.00;72.80;;;;;;5018611;28;20765;-40
2021/03/05 07:05:55;;;;;;;17.20;9.23;;;5.90;72.80;;;;;;5025163;28;20494;-40
2021/03/05 07:08:45;;;;;;;13.00;8.13;;;6.00;73.10;;;;;;5003942;28;20471;-41
2021/03/05 07:11:33;;;;;;;15.03;8.23;;;6.00;73.20;;;;;;5007992;28;21024;-41
2021/03/05 07:13:59;;;;;;;13.83;7.83;;;6.10;72.80;;;;;;5022639;28;20505;-41
2021/03/05 07:16:27;;;;;;;18.20;9.13;;;6.10;72.40;;;;;;5021262;28;20506;-41
2021/03/05 07:18:54;;;;;;;13.83;8.70;;;6.10;72.80;;;;;;5022436;28;20452;-41
2021/03/05 07:21:21;;;;;;;14.50;8.70;;;6.10;72.70;;;;;;5004821;28;20456;-41
2021/03/05 07:23:48;;;;;;;23.63;9.17;;;6.10;72.30;;;;;;5025741;28;20532;-41
2021/03/05 07:26:16;;;;;;;15.30;9.50;;;6.10;72.50;;;;;;5022256;28;20500;-41
2021/03/05 07:28:46;;;;;;;19.93;8.03;;;6.10;72.50;;;;;;5022724;28;20455;-41
2021/03/05 07:31:16;;;;;;;16.27;9.00;;;6.10;72.60;;;;;;5022796;28;20467;-41
2021/03/05 07:33:48;;;;;;;17.27;8.80;;;6.10;72.50;;;;;;5006726;28;20550;-41
2021/03/05 07:36:16;;;;;;;17.63;8.33;;;6.20;72.40;;;;;;5023607;28;20517;-41
2021/03/05 07:38:49;;;;;;;14.53;8.20;;;6.20;72.30;;;;;;5003965;28;20571;-41
2021/03/05 07:41:21;;;;;;;16.60;8.63;;;6.20;72.50;;;;;;5021710;28;20937;-41
2021/03/05 07:43:49;;;;;;;17.43;9.07;;;6.20;72.70;;;;;;5026326;28;21029;-41
2021/03/05 07:46:16;;;;;;;19.17;9.87;;;6.30;72.80;;;;;;5022589;28;20475;-41
2021/03/05 07:48:48;;;;;;;16.43;9.10;;;6.30;72.10;;;;;;5024643;28;20489;-41
2021/03/05 07:51:16;;;;;;;15.77;10.43;;;6.40;72.00;;;;;;5024185;28;20467;-41
2021/03/05 07:53:55;;;;;;;19.47;9.63;;;6.50;71.50;;;;;;5026471;28;20562;-41
2021/03/05 07:56:50;;;;;;;16.27;8.53;;;6.50;71.80;;;;;;5019969;28;20961;-41
2021/03/05 07:59:44;;;;;;;20.07;9.37;;;6.60;71.70;;;;;;5004913;28;20483;-41
2021/03/05 08:02:11;;;;;;;17.20;8.70;;;6.60;71.80;;;;;;5020060;28;20448;-41
2021/03/05 08:04:50;;;;;;;17.00;10.03;;;6.60;71.80;;;;;;5040349;28;20462;-41
2021/03/05 08:07:17;;;;;;;17.10;10.10;;;6.60;71.80;;;;;;5021466;28;20482;-41
2021/03/05 08:09:44;;;;;;;16.00;8.10;;;6.70;72.00;;;;;;5003593;28;20526;-41
2021/03/05 08:12:28;;;;;;;15.83;9.80;;;6.70;72.10;;;;;;5026818;28;20447;-41
2021/03/05 08:15:18;;;;;;;16.40;9.57;;;6.80;72.00;;;;;;5029927;28;20483;-41
2021/03/05 08:17:46;;;;;;;21.03;10.90;;;6.80;71.60;;;;;;5024152;28;20530;-41
2021/03/05 08:20:16;;;;;;;14.67;9.23;;;6.80;71.50;;;;;;5011401;28;20787;-41
2021/03/05 08:23:01;;;;;;;14.10;8.50;;;6.90;71.30;;;;;;5022156;28;20538;-41
2021/03/05 08:25:38;;;;;;;19.23;8.90;;;6.90;71.20;;;;;;5025275;28;20940;-41
2021/03/05 08:28:06;;;;;;;11.90;7.70;;;7.00;71.30;;;;;;5030644;28;20547;-41
2021/03/05 08:30:32;;;;;;;14.37;8.63;;;7.10;71.30;;;;;;5010980;28;20840;-41
2021/03/05 08:33:06;;;;;;;14.70;8.40;;;7.10;71.00;;;;;;5028366;28;20459;-41
2021/03/05 08:35:37;;;;;;;12.40;7.80;;;7.10;70.90;;;;;;5025666;28;20458;-41
2021/03/05 08:38:07;;;;;;;15.80;8.70;;;7.20;70.80;;;;;;5026897;28;20491;-41
2021/03/05 08:40:35;;;;;;;13.33;8.60;;;7.30;70.70;;;;;;5026307;28;20558;-41
2021/03/05 08:43:11;;;;;;;14.30;8.00;;;7.30;70.60;;;;;;5011264;28;20447;-41
2021/03/05 08:45:52;;;;;;;13.20;8.60;;;7.40;70.30;;;;;;5027478;28;20475;-41
2021/03/05 08:48:41;;;;;;;13.47;7.50;;;7.50;69.60;;;;;;5011896;28;21015;-41
2021/03/05 08:51:14;;;;;;;11.60;8.17;;;7.60;69.00;;;;;;5045993;28;20448;-41
2021/03/05 08:54:01;;;;;;;14.20;8.13;;;7.70;68.30;;;;;;5027610;28;20475;-41
2021/03/05 08:56:30;;;;;;;12.00;7.93;;;7.70;68.80;;;;;;5008459;28;20499;-41
2021/03/05 08:59:09;;;;;;;12.37;6.93;;;7.70;68.60;;;;;;5028412;28;20538;-41
2021/03/05 09:01:40;;;;;;;14.80;8.03;;;7.80;68.50;;;;;;5028862;28;20895;-41
2021/03/05 09:04:14;;;;;;;11.23;7.13;;;7.80;68.30;;;;;;5024428;28;20962;-42
2021/03/05 09:06:51;;;;;;;11.53;7.40;;;7.90;67.70;;;;;;5009827;28;20543;-41
2021/03/05 09:09:26;;;;;;;13.70;8.50;;;7.90;68.00;;;;;;5031016;28;20513;-41
2021/03/05 09:12:14;;;;;;;11.20;7.43;;;7.90;68.00;;;;;;5012252;28;20525;-41
2021/03/05 09:14:42;;;;;;;13.40;8.10;;;7.80;68.10;;;;;;5027275;28;20541;-41
2021/03/05 09:17:10;;;;;;;10.10;7.10;;;7.80;67.90;;;;;;5028857;28;20818;-41
2021/03/05 09:19:41;;;;;;;12.90;7.80;;;7.80;67.40;;;;;;5041757;28;20529;-41
2021/03/05 09:22:16;;;;;;;9.33;6.93;;;7.80;65.80;;;;;;5007767;28;20499;-41
2021/03/05 09:25:06;;;;;;;9.80;6.93;;;7.90;64.90;;;;;;5010105;28;20478;-41
2021/03/05 09:27:40;;;;;;;10.00;7.20;;;7.80;65.80;;;;;;5020820;28;20550;-41
2021/03/05 09:30:24;;;;;;;11.40;8.10;;;7.80;65.40;;;;;;5027390;28;20574;-41
2021/03/05 09:32:57;;;;;;;13.70;8.80;;;7.80;65.20;;;;;;5041981;28;20620;-41
2021/03/05 09:35:28;;;;;;;10.90;8.93;;;7.90;65.30;;;;;;5025473;28;20455;-41
2021/03/05 09:37:56;;;;;;;13.40;10.43;;;7.90;65.00;;;;;;5025236;28;20543;-41
2021/03/05 09:40:28;;;;;;;11.33;8.07;;;7.90;64.00;;;;;;4992199;28;20466;-41
2021/03/05 09:42:59;;;;;;;11.37;8.17;;;8.00;63.40;;;;;;5024690;28;20590;-41
2021/03/05 09:45:33;;;;;;;8.90;7.40;;;8.00;63.50;;;;;;5025749;28;20819;-41
2021/03/05 09:48:01;;;;;;;10.70;7.03;;;8.00;64.00;;;;;;5025156;28;20495;-41
2021/03/05 09:50:27;;;;;;;13.47;8.70;;;8.00;63.50;;;;;;5027600;28;20475;-41
2021/03/05 09:52:54;;;;;;;9.67;6.83;;;8.00;63.90;;;;;;5044277;28;20475;-41
2021/03/05 09:55:25;;;;;;;10.37;7.17;;;8.10;64.00;;;;;;4994079;28;21007;-41
2021/03/05 09:57:52;;;;;;;10.10;7.97;;;8.10;64.50;;;;;;5025093;28;20468;-41
2021/03/05 10:00:31;;;;;;;10.47;7.40;;;8.20;63.30;;;;;;5024393;28;20470;-41
2021/03/05 10:03:02;;;;;;;10.03;7.73;;;8.20;63.60;;;;;;5009654;28;20547;-41
2021/03/05 10:05:30;;;;;;;9.97;7.50;;;8.20;63.10;;;;;;5022724;28;20461;-41
2021/03/05 10:07:56;;;;;;;11.87;6.93;;;8.30;63.00;;;;;;5025351;28;20539;-42
2021/03/05 10:10:23;;;;;;;10.10;6.90;;;8.30;63.10;;;;;;5026275;28;20964;-41
2021/03/05 10:13:02;;;;;;;8.00;6.60;;;8.40;62.20;;;;;;5013481;28;20533;-41
2021/03/05 10:15:32;;;;;;;9.17;6.23;;;8.40;62.20;;;;;;5024893;28;20550;-41
2021/03/05 10:17:58;;;;;;;9.67;6.80;;;8.40;62.30;;;;;;5025915;28;20463;-41
2021/03/05 10:20:30;;;;;;;9.00;6.27;;;8.40;62.50;;;;;;5024691;28;21091;-41
2021/03/05 10:22:59;;;;;;;11.10;6.90;;;8.40;61.90;;;;;;5024636;28;20459;-41
2021/03/05 10:25:26;;;;;;;8.33;6.60;;;8.40;61.40;;;;;;5024720;28;20480;-41
2021/03/05 10:27:53;;;;;;;7.30;6.10;;;8.40;61.00;;;;;;5012817;28;20547;-42
2021/03/05 10:30:20;;;;;;;7.37;6.00;;;8.40;61.70;;;;;;5024015;28;20514;-41
2021/03/05 10:32:48;;;;;;;8.63;5.80;;;8.40;61.50;;;;;;5008705;28;20544;-41
2021/03/05 10:35:16;;;;;;;8.50;5.93;;;8.50;61.50;;;;;;5025371;28;20562;-41
2021/03/05 10:37:44;;;;;;;7.53;5.83;;;8.60;60.90;;;;;;5022957;28;20534;-41
2021/03/05 10:40:16;;;;;;;9.20;6.70;;;8.70;60.30;;;;;;4991550;28;20459;-41
2021/03/05 10:42:43;;;;;;;7.60;5.80;;;8.60;60.20;;;;;;5024870;28;20471;-41
2021/03/05 10:45:09;;;;;;;11.00;6.67;;;8.70;60.30;;;;;;5041643;28;20908;-41
2021/03/05 10:47:36;;;;;;;9.27;6.53;;;8.70;60.60;;;;;;5023077;28;20467;-41
2021/03/05 10:50:04;;;;;;;8.70;6.80;;;8.70;59.80;;;;;;5023771;28;20475;-41
2021/03/05 10:52:31;;;;;;;10.33;6.77;;;8.70;59.60;;;;;;5026317;28;20602;-41
2021/03/05 10:54:57;;;;;;;8.27;6.13;;;8.70;60.20;;;;;;5023593;28;20562;-41
2021/03/05 10:57:24;;;;;;;8.43;6.40;;;8.80;60.50;;;;;;5003191;28;20468;-41
2021/03/05 10:59:51;;;;;;;7.33;6.60;;;8.90;59.30;;;;;;5007851;28;20490;-41
2021/03/05 11:02:18;;;;;;;6.73;5.70;;;9.10;58.90;;;;;;5043429;28;20459;-41
2021/03/05 11:04:48;;;;;;;8.57;6.50;;;9.20;56.90;;;;;;5009897;28;21003;-41
2021/03/05 11:07:14;;;;;;;9.30;5.77;;;9.30;56.00;;;;;;5009882;28;20460;-41
2021/03/05 11:09:40;;;;;;;6.87;5.40;;;9.40;56.00;;;;;;5008606;28;20452;-41
2021/03/05 11:12:08;;;;;;;6.10;5.50;;;9.30;55.80;;;;;;5024139;28;20472;-41
2021/03/05 11:14:34;;;;;;;6.93;6.00;;;9.30;56.00;;;;;;5007163;28;20586;-41
2021/03/05 11:17:01;;;;;;;6.70;5.97;;;9.20;55.70;;;;;;5003814;28;20462;-41
2021/03/05 11:19:29;;;;;;;13.40;6.60;;;9.10;56.50;;;;;;5007272;28;20952;-41
2021/03/05 11:21:56;;;;;;;7.73;5.83;;;9.10;57.60;;;;;;5040035;28;20523;-41
2021/03/05 11:24:27;;;;;;;8.70;5.37;;;9.00;57.70;;;;;;5008113;28;20467;-41
2021/03/05 11:26:53;;;;;;;8.87;6.20;;;9.00;57.70;;;;;;5010905;28;20467;-41
2021/03/05 11:29:23;;;;;;;7.37;5.80;;;9.00;57.70;;;;;;5025076;28;20574;-41
2021/03/05 11:31:49;;;;;;;9.77;6.60;;;8.90;58.20;;;;;;5010396;28;20463;-41
2021/03/05 11:34:16;;;;;;;8.90;6.37;;;8.90;59.00;;;;;;5007018;28;20566;-41
2021/03/05 11:36:42;;;;;;;9.00;6.33;;;8.90;58.60;;;;;;5039385;28;20509;-41
2021/03/05 11:39:09;;;;;;;7.70;6.67;;;8.80;58.60;;;;;;5024181;28;20467;-41
2021/03/05 11:41:35;;;;;;;7.30;6.43;;;8.80;59.10;;;;;;5023116;28;20567;-41
2021/03/05 11:44:19;;;;;;;8.10;6.37;;;8.80;59.70;;;;;;5009717;28;20493;-41
2021/03/05 11:46:45;;;;;;;9.93;6.97;;;8.80;59.20;;;;;;5023655;28;20547;-41
2021/03/05 11:49:12;;;;;;;9.80;6.17;;;8.90;58.40;;;;;;5039199;28;21062;-41
2021/03/05 11:51:39;;;;;;;8.00;5.93;;;8.90;58.30;;;;;;5004551;28;20463;-42
2021/03/05 11:54:06;;;;;;;7.83;5.77;;;8.90;57.80;;;;;;5020656;28;20514;-41
2021/03/05 11:56:33;;;;;;;8.07;6.93;;;8.90;57.90;;;;;;5005422;28;20463;-41
2021/03/05 11:59:05;;;;;;;7.50;5.80;;;9.10;57.90;;;;;;5022960;28;20944;-41
2021/03/05 12:01:32;;;;;;;7.83;5.70;;;9.20;56.60;;;;;;5026082;28;20789;-41
2021/03/05 12:04:01;;;;;;;6.93;5.23;;;9.30;56.10;;;;;;5007818;28;20465;-41
2021/03/05 12:06:29;;;;;;;8.27;5.60;;;9.40;55.60;;;;;;5021961;28;20475;-41
2021/03/05 12:08:58;;;;;;;9.03;5.90;;;9.50;55.80;;;;;;5022726;28;20455;-41
2021/03/05 12:11:25;;;;;;;7.30;5.60;;;9.60;55.40;;;;;;5027686;28;20555;-41
2021/03/05 12:13:51;;;;;;;7.13;5.63;;;9.60;54.50;;;;;;5006428;28;20591;-41
2021/03/05 12:16:18;;;;;;;6.10;5.20;;;9.60;54.90;;;;;;5024077;28;20742;-41
2021/03/05 12:18:45;;;;;;;7.13;5.23;;;9.60;54.90;;;;;;4990396;28;20987;-41
2021/03/05 12:21:12;;;;;;;6.83;5.23;;;9.50;54.00;;;;;;5003984;28;20853;-41
2021/03/05 12:23:38;;;;;;;6.53;5.07;;;9.40;53.80;;;;;;5022537;28;20860;-41
2021/03/05 12:26:05;;;;;;;7.50;5.57;;;9.30;54.10;;;;;;5008981;28;20885;-41
2021/03/05 12:28:31;;;;;;;7.73;4.87;;;9.20;54.10;;;;;;5005754;28;20484;-41
2021/03/05 12:30:58;;;;;;;6.50;4.73;;;9.20;53.70;;;;;;5007579;28;20521;-41
2021/03/05 12:33:25;;;;;;;7.07;4.50;;;9.10;53.90;;;;;;5025391;28;20513;-41
2021/03/05 12:35:51;;;;;;;6.30;4.63;;;9.10;53.10;;;;;;5039623;28;20753;-41
2021/03/05 12:38:19;;;;;;;4.20;3.57;;;9.00;53.30;;;;;;5021146;28;20490;-41
2021/03/05 12:40:45;;;;;;;4.70;4.17;;;9.00;52.90;;;;;;5024329;28;20531;-41
2021/03/05 12:43:11;;;;;;;5.20;4.00;;;9.00;53.70;;;;;;5021101;28;20456;-41
2021/03/05 12:45:38;;;;;;;4.93;4.10;;;8.90;53.80;;;;;;5021508;28;20570;-41
2021/03/05 12:48:06;;;;;;;4.90;4.37;;;8.90;54.20;;;;;;5021516;28;20568;-41
2021/03/05 12:50:33;;;;;;;5.10;4.57;;;8.90;53.20;;;;;;5021105;28;20594;-42
2021/03/05 12:52:59;;;;;;;5.57;4.40;;;8.90;52.90;;;;;;5021899;28;20550;-41
2021/03/05 12:55:25;;;;;;;6.20;4.87;;;8.90;53.70;;;;;;5006049;28;21064;-41
2021/03/05 12:57:52;;;;;;;6.23;4.43;;;8.90;53.20;;;;;;5010283;28;20539;-41
2021/03/05 13:00:19;;;;;;;6.80;5.10;;;9.00;54.20;;;;;;4991613;28;20459;-41
2021/03/05 13:02:46;;;;;;;4.93;4.07;;;9.00;55.00;;;;;;5010552;28;20451;-41